createdAt,value
2018-07-23T00:02:03.087Z,19.33
2018-07-23T00:04:31.668Z,22.30
2018-07-23T00:07:00.165Z,23.20
2018-07-23T00:09:28.652Z,23.77
2018-07-23T00:11:57.133Z,19.63
2018-07-23T00:14:25.623Z,21.50
2018-07-23T00:16:54.089Z,19.97
2018-07-23T00:19:22.590Z,21.57
2018-07-23T00:21:51.151Z,18.33
2018-07-23T00:24:19.646Z,20.60
2018-07-23T00:26:48.113Z,20.77
2018-07-23T00:29:16.593Z,21.27
2018-07-23T00:31:45.152Z,20.60
2018-07-23T00:34:13.782Z,19.47
2018-07-23T00:36:42.258Z,18.73
2018-07-23T00:39:11.091Z,20.07
2018-07-23T00:41:39.598Z,21.30
2018-07-23T00:44:08.098Z,23.77
2018-07-23T00:46:36.584Z,23.47
2018-07-23T00:49:05.227Z,22.20
2018-07-23T00:51:33.776Z,22.03
2018-07-23T00:54:02.236Z,22.70
2018-07-23T00:56:30.734Z,21.57
2018-07-23T00:58:59.202Z,22.27
2018-07-23T01:01:27.800Z,22.90
2018-07-23T01:03:56.253Z,22.67
2018-07-23T01:06:24.733Z,21.93
2018-07-23T01:08:53.213Z,20.30
2018-07-23T01:11:21.700Z,20.57
2018-07-23T01:13:50.242Z,19.73
2018-07-23T01:16:18.799Z,21.13
2018-07-23T01:18:47.334Z,19.47
2018-07-23T01:21:15.859Z,22.67
2018-07-23T01:23:44.333Z,21.00
2018-07-23T01:26:12.897Z,21.13
2018-07-23T01:28:41.398Z,24.80
2018-07-23T01:31:09.886Z,21.00
2018-07-23T01:33:38.401Z,20.40
2018-07-23T01:36:06.883Z,20.40
2018-07-23T01:38:35.339Z,20.97
2018-07-23T01:41:03.933Z,21.10
2018-07-23T01:43:32.397Z,20.70
2018-07-23T01:46:00.907Z,24.87
2018-07-23T01:48:29.293Z,23.47
2018-07-23T01:50:57.489Z,20.80
2018-07-23T01:53:26.219Z,27.00
2018-07-23T01:55:54.825Z,22.63
2018-07-23T01:58:23.335Z,24.27
2018-07-23T02:00:51.806Z,21.77
2018-07-23T02:03:19.948Z,22.33
2018-07-23T02:05:48.444Z,22.30
2018-07-23T02:08:16.941Z,23.27
2018-07-23T02:10:45.515Z,22.80
2018-07-23T02:13:14.006Z,23.10
2018-07-23T02:15:42.151Z,24.30
2018-07-23T02:18:10.729Z,30.70
2018-07-23T02:20:39.210Z,24.87
2018-07-23T02:23:07.686Z,23.07
2018-07-23T02:25:36.190Z,22.50
2018-07-23T02:28:04.703Z,22.80
2018-07-23T02:30:33.238Z,27.87
2018-07-23T02:33:01.723Z,20.73
2018-07-23T02:35:30.180Z,25.27
2018-07-23T02:37:58.717Z,24.37
2018-07-23T02:40:27.196Z,21.27
2018-07-23T02:42:55.692Z,27.43
2018-07-23T02:45:24.148Z,28.67
2018-07-23T02:47:52.749Z,22.60
2018-07-23T02:50:21.271Z,27.33
2018-07-23T02:52:49.765Z,25.67
2018-07-23T02:55:18.300Z,26.13
2018-07-23T02:57:46.859Z,22.43
2018-07-23T03:00:15.325Z,23.40
2018-07-23T03:02:43.841Z,26.03
2018-07-23T03:05:12.547Z,22.67
2018-07-23T03:07:41.079Z,22.07
2018-07-23T03:10:09.699Z,23.27
2018-07-23T03:12:38.199Z,23.67
2018-07-23T03:15:07.907Z,24.10
2018-07-23T03:17:36.389Z,23.00
2018-07-23T03:20:05.504Z,24.40
2018-07-23T03:22:34.044Z,20.90
2018-07-23T03:25:02.546Z,24.33
2018-07-23T03:27:31.035Z,25.27
2018-07-23T03:29:59.537Z,22.47
2018-07-23T03:32:28.172Z,21.57
2018-07-23T03:34:56.666Z,21.93
2018-07-23T03:37:25.463Z,25.93
2018-07-23T03:39:53.952Z,23.97
2018-07-23T03:42:22.471Z,24.57
2018-07-23T03:44:50.922Z,24.13
2018-07-23T03:47:19.438Z,25.10
2018-07-23T03:49:48.049Z,25.70
2018-07-23T03:52:16.605Z,24.70
2018-07-23T03:54:45.265Z,22.23
2018-07-23T03:57:13.759Z,23.63
2018-07-23T03:59:41.910Z,25.70
2018-07-23T04:02:10.453Z,27.70
2018-07-23T04:04:39.016Z,26.40
2018-07-23T04:07:07.509Z,32.83
2018-07-23T04:09:36.009Z,30.97
2018-07-23T04:12:04.536Z,32.37
2018-07-23T04:14:33.018Z,33.97
2018-07-23T04:17:01.154Z,33.23
2018-07-23T04:19:29.678Z,33.60
2018-07-23T04:21:58.158Z,32.07
2018-07-23T04:24:26.691Z,33.93
2018-07-23T04:26:55.275Z,36.70
2018-07-23T04:29:23.764Z,31.90
2018-07-23T04:31:52.231Z,35.17
2018-07-23T04:34:20.720Z,33.30
2018-07-23T04:36:49.195Z,35.00
2018-07-23T04:39:17.691Z,32.23
2018-07-23T04:41:46.174Z,38.00
2018-07-23T04:44:14.651Z,37.33
2018-07-23T04:46:43.370Z,30.97
2018-07-23T04:49:11.894Z,31.87
2018-07-23T04:51:40.399Z,32.97
2018-07-23T04:54:08.989Z,32.67
2018-07-23T04:56:37.516Z,28.27
2018-07-23T04:59:06.025Z,29.50
2018-07-23T05:01:34.813Z,29.60
2018-07-23T05:04:03.358Z,31.80
2018-07-23T05:06:31.924Z,29.90
2018-07-23T05:09:00.425Z,28.10
2018-07-23T05:11:29.112Z,27.50
2018-07-23T05:13:57.789Z,29.67
2018-07-23T05:16:26.274Z,30.70
2018-07-23T05:18:54.785Z,28.87
2018-07-23T05:21:23.325Z,28.00
2018-07-23T05:23:51.974Z,28.00
2018-07-23T05:26:20.470Z,28.93
2018-07-23T05:28:48.971Z,31.70
2018-07-23T05:31:17.454Z,32.00
2018-07-23T05:33:47.613Z,33.97
2018-07-23T05:36:16.204Z,30.53
2018-07-23T05:38:44.976Z,28.43
2018-07-23T05:41:13.492Z,29.60
2018-07-23T05:43:42.090Z,29.33
2018-07-23T05:46:10.595Z,26.50
2018-07-23T05:48:39.077Z,27.10
2018-07-23T05:51:07.711Z,30.70
2018-07-23T05:53:36.254Z,27.80
2018-07-23T05:56:04.910Z,27.83
2018-07-23T05:58:33.780Z,27.87
2018-07-23T06:01:02.444Z,31.10
2018-07-23T06:03:31.075Z,29.83
2018-07-23T06:05:59.556Z,27.07
2018-07-23T06:08:28.030Z,27.97
2018-07-23T06:10:56.590Z,30.03
2018-07-23T06:13:25.146Z,30.03
2018-07-23T06:15:53.671Z,32.17
2018-07-23T06:18:22.118Z,32.97
2018-07-23T06:20:50.646Z,32.87
2018-07-23T06:23:19.146Z,31.03
2018-07-23T06:25:47.883Z,29.57
2018-07-23T06:28:16.369Z,30.53
2018-07-23T06:30:45.006Z,27.40
2018-07-23T06:33:13.765Z,28.03
2018-07-23T06:35:42.381Z,27.10
2018-07-23T06:38:10.922Z,26.70
2018-07-23T06:40:39.413Z,26.77
2018-07-23T06:43:07.914Z,27.40
2018-07-23T06:45:36.379Z,26.33
2018-07-23T06:48:05.055Z,26.47
2018-07-23T06:50:33.567Z,25.90
2018-07-23T06:53:02.090Z,23.30
2018-07-23T06:55:30.685Z,22.00
2018-07-23T06:57:59.187Z,20.53
2018-07-23T07:00:27.685Z,21.53
2018-07-23T07:02:56.158Z,22.10
2018-07-23T07:05:24.630Z,22.90
2018-07-23T07:07:53.143Z,21.57
2018-07-23T07:10:21.655Z,20.17
2018-07-23T07:12:50.163Z,20.77
2018-07-23T07:15:18.693Z,20.33
2018-07-23T07:17:47.210Z,18.27
2018-07-23T07:20:15.814Z,17.80
2018-07-23T07:22:44.318Z,17.23
2018-07-23T07:25:12.835Z,18.00
2018-07-23T07:27:41.441Z,17.43
2018-07-23T07:30:10.152Z,20.10
2018-07-23T07:32:39.682Z,18.97
2018-07-23T07:35:08.166Z,18.70
2018-07-23T07:37:36.682Z,19.80
2018-07-23T07:40:05.254Z,19.33
2018-07-23T07:42:33.762Z,21.10
2018-07-23T07:45:02.247Z,20.63
2018-07-23T07:47:30.755Z,22.00
2018-07-23T07:49:59.407Z,21.20
2018-07-23T07:52:27.993Z,20.20
2018-07-23T07:54:56.482Z,20.43
2018-07-23T07:57:25.044Z,19.53
2018-07-23T07:59:53.898Z,19.43
2018-07-23T08:02:22.443Z,20.20
2018-07-23T08:04:50.919Z,19.67
2018-07-23T08:07:19.459Z,17.47
2018-07-23T08:09:47.959Z,19.30
2018-07-23T08:12:16.452Z,19.70
2018-07-23T08:14:45.153Z,21.40
2018-07-23T08:17:13.617Z,21.80
2018-07-23T08:19:42.131Z,20.80
2018-07-23T08:22:10.653Z,18.50
2018-07-23T08:24:39.134Z,17.33
2018-07-23T08:27:07.650Z,17.80
2018-07-23T08:29:36.379Z,17.57
2018-07-23T08:32:05.288Z,16.87
2018-07-23T08:34:33.613Z,16.30
2018-07-23T08:37:02.167Z,20.30
2018-07-23T08:39:30.660Z,17.80
2018-07-23T08:41:59.166Z,17.23
2018-07-23T08:44:27.663Z,18.57
2018-07-23T08:46:56.118Z,16.93
2018-07-23T08:49:24.789Z,17.70
2018-07-23T08:51:53.309Z,17.40
2018-07-23T08:54:21.814Z,15.83
2018-07-23T08:56:50.313Z,15.83
2018-07-23T08:59:18.771Z,15.87
2018-07-23T09:01:47.355Z,15.53
2018-07-23T09:04:15.835Z,15.23
2018-07-23T09:06:44.310Z,16.47
2018-07-23T09:09:12.811Z,15.23
2018-07-23T09:11:41.566Z,13.47
2018-07-23T09:14:10.046Z,13.43
2018-07-23T09:16:38.645Z,15.30
2018-07-23T09:19:07.149Z,15.37
2018-07-23T09:21:36.409Z,15.33
2018-07-23T09:24:04.980Z,14.30
2018-07-23T09:26:33.658Z,12.70
2018-07-23T09:29:02.136Z,12.53
2018-07-23T09:31:30.642Z,13.13
2018-07-23T09:33:59.238Z,13.90
2018-07-23T09:36:27.726Z,14.70
2018-07-23T09:38:56.198Z,13.40
2018-07-23T09:41:24.689Z,12.40
2018-07-23T09:43:53.176Z,13.00
2018-07-23T09:46:21.631Z,14.30
2018-07-23T09:48:49.797Z,13.70
2018-07-23T09:51:18.425Z,12.93
2018-07-23T09:53:46.906Z,11.87
2018-07-23T09:56:15.391Z,12.67
2018-07-23T09:58:43.890Z,13.00
2018-07-23T10:01:13.466Z,12.20
2018-07-23T10:03:42.677Z,13.17
2018-07-23T10:06:11.121Z,13.60
2018-07-23T10:08:39.587Z,12.87
2018-07-23T10:11:08.401Z,15.53
2018-07-23T10:13:36.848Z,14.83
2018-07-23T10:16:05.354Z,15.20
2018-07-23T10:18:33.833Z,15.20
2018-07-23T10:21:02.331Z,14.73
2018-07-23T10:23:30.984Z,14.87
2018-07-23T10:25:59.591Z,15.50
2018-07-23T10:28:28.094Z,14.93
2018-07-23T10:30:56.573Z,16.10
2018-07-23T10:33:25.065Z,16.57
2018-07-23T10:35:53.579Z,13.30
2018-07-23T10:38:22.087Z,17.17
2018-07-23T10:40:50.566Z,16.40
2018-07-23T10:43:19.022Z,17.20
2018-07-23T10:45:47.518Z,16.43
2018-07-23T10:48:15.995Z,16.37
2018-07-23T10:50:44.502Z,17.50
2018-07-23T10:53:12.971Z,16.53
2018-07-23T10:55:41.474Z,17.27
2018-07-23T10:58:10.098Z,15.53
2018-07-23T11:00:38.546Z,17.20
2018-07-23T11:03:07.090Z,14.40
2018-07-23T11:05:35.554Z,16.33
2018-07-23T11:08:04.495Z,16.57
2018-07-23T11:10:33.007Z,19.20
2018-07-23T11:13:01.157Z,16.27
2018-07-23T11:15:29.697Z,15.87
2018-07-23T11:17:58.203Z,16.57
2018-07-23T11:20:26.897Z,16.40
2018-07-23T11:22:55.462Z,14.67
2018-07-23T11:25:39.086Z,15.70
2018-07-23T11:27:52.594Z,15.37
2018-07-23T11:30:21.087Z,14.53
2018-07-23T11:32:49.624Z,12.70
2018-07-23T11:35:18.179Z,13.37
2018-07-23T11:37:46.684Z,12.27
2018-07-23T11:40:15.177Z,13.13
2018-07-23T11:42:43.736Z,13.20
2018-07-23T11:45:12.195Z,12.93
2018-07-23T11:47:40.649Z,13.90
2018-07-23T11:50:09.439Z,13.10
2018-07-23T11:52:38.012Z,15.57
2018-07-23T11:55:06.694Z,13.63
2018-07-23T11:57:35.160Z,13.20
2018-07-23T12:00:04.064Z,12.17
2018-07-23T12:02:32.565Z,12.37
2018-07-23T12:05:00.846Z,13.03
2018-07-23T12:07:29.350Z,12.67
2018-07-23T12:09:58.374Z,14.33
2018-07-23T12:12:26.951Z,15.23
2018-07-23T12:14:55.475Z,13.20
2018-07-23T12:17:24.017Z,13.67
2018-07-23T12:19:52.130Z,13.17
2018-07-23T12:22:20.645Z,10.80
2018-07-23T12:24:48.879Z,13.30
2018-07-23T12:27:17.386Z,11.47
2018-07-23T12:29:45.908Z,11.87
2018-07-23T12:32:14.399Z,13.40
2018-07-23T12:34:42.898Z,11.93
2018-07-23T12:37:11.526Z,12.13
2018-07-23T12:39:40.067Z,12.40
2018-07-23T12:42:08.551Z,13.37
2018-07-23T12:44:37.207Z,12.47
2018-07-23T12:47:06.154Z,13.30
2018-07-23T12:49:34.630Z,11.30
2018-07-23T12:52:03.366Z,12.67
2018-07-23T12:54:31.851Z,11.30
2018-07-23T12:57:00.402Z,12.23
2018-07-23T12:59:28.899Z,10.97
2018-07-23T13:01:57.170Z,12.17
2018-07-23T13:04:25.639Z,12.40
2018-07-23T13:06:54.150Z,12.73
2018-07-23T13:09:22.627Z,11.67
2018-07-23T13:11:50.987Z,11.50
2018-07-23T13:14:19.469Z,11.60
2018-07-23T13:16:47.946Z,10.63
2018-07-23T13:19:16.911Z,11.90
2018-07-23T13:21:45.375Z,10.57
2018-07-23T13:24:13.922Z,11.13
2018-07-23T13:26:42.495Z,11.23
2018-07-23T13:29:11.299Z,10.70
2018-07-23T13:31:39.849Z,12.53
2018-07-23T13:34:08.356Z,11.70
2018-07-23T13:36:36.869Z,12.60
2018-07-23T13:39:14.023Z,13.27
2018-07-23T13:41:42.554Z,13.93
2018-07-23T13:44:12.818Z,13.60
2018-07-23T13:46:41.346Z,12.53
2018-07-23T13:49:09.896Z,11.83
2018-07-23T13:51:38.050Z,13.33
2018-07-23T13:54:06.609Z,11.90
2018-07-23T13:56:35.095Z,13.07
2018-07-23T13:59:03.587Z,13.63
2018-07-23T14:01:32.118Z,13.33
2018-07-23T14:04:00.607Z,21.40
2018-07-23T14:06:28.783Z,12.40
2018-07-23T14:08:57.307Z,13.97
2018-07-23T14:11:25.806Z,14.17
2018-07-23T14:13:54.325Z,12.57
2018-07-23T14:16:22.787Z,13.50
2018-07-23T14:18:51.294Z,12.20
2018-07-23T14:21:19.998Z,13.53
2018-07-23T14:23:48.635Z,13.93
2018-07-23T14:26:17.178Z,12.67
2018-07-23T14:28:45.712Z,12.83
2018-07-23T14:31:14.379Z,11.50
2018-07-23T14:33:43.077Z,11.70
2018-07-23T14:36:11.598Z,12.20
2018-07-23T14:38:40.138Z,12.73
2018-07-23T14:41:08.895Z,12.80
2018-07-23T14:43:38.150Z,10.83
2018-07-23T14:46:06.935Z,11.30
2018-07-23T14:48:36.055Z,10.30
2018-07-23T14:51:05.642Z,11.67
2018-07-23T14:53:34.667Z,12.70
2018-07-23T14:56:03.143Z,11.87
2018-07-23T14:58:31.652Z,12.37
2018-07-23T15:01:00.143Z,11.20
2018-07-23T15:03:28.743Z,12.70
2018-07-23T15:05:57.252Z,12.03
2018-07-23T15:08:25.826Z,12.97
2018-07-23T15:10:54.338Z,12.33
2018-07-23T15:13:22.901Z,12.07
2018-07-23T15:15:51.407Z,11.17
2018-07-23T15:18:19.906Z,11.67
2018-07-23T15:20:48.399Z,16.00
2018-07-23T15:23:16.915Z,10.27
2018-07-23T15:25:45.554Z,10.03
2018-07-23T15:28:14.074Z,10.83
2018-07-23T15:30:42.567Z,11.20
2018-07-23T15:33:11.107Z,12.93
2018-07-23T15:35:39.676Z,11.20
2018-07-23T15:38:07.855Z,11.60
2018-07-23T15:40:36.379Z,12.10
2018-07-23T15:43:05.099Z,13.03
2018-07-23T15:45:33.738Z,11.77
2018-07-23T15:48:02.153Z,12.27
2018-07-23T15:50:30.647Z,12.40
2018-07-23T15:52:59.254Z,11.50
2018-07-23T15:55:28.359Z,11.03
2018-07-23T15:57:56.872Z,11.37
2018-07-23T16:00:25.694Z,9.80
2018-07-23T16:02:54.322Z,9.90
2018-07-23T16:05:23.191Z,10.07
2018-07-23T16:07:52.063Z,9.47
2018-07-23T16:10:20.638Z,10.00
2018-07-23T16:12:49.387Z,9.43
2018-07-23T16:15:17.962Z,10.07
2018-07-23T16:17:46.473Z,11.70
2018-07-23T16:20:15.110Z,10.73
2018-07-23T16:22:43.402Z,10.40
2018-07-23T16:25:11.926Z,11.20
2018-07-23T16:27:40.655Z,9.50
2018-07-23T16:30:10.050Z,9.90
2018-07-23T16:32:38.603Z,10.67
2018-07-23T16:35:09.119Z,11.20
2018-07-23T16:37:37.763Z,10.13
2018-07-23T16:40:07.376Z,9.90
2018-07-23T16:42:35.931Z,9.57
2018-07-23T16:45:04.683Z,10.77
2018-07-23T16:47:33.198Z,11.90
2018-07-23T16:50:01.819Z,11.63
2018-07-23T16:52:30.419Z,11.00
2018-07-23T16:54:58.963Z,11.40
2018-07-23T16:57:27.545Z,12.60
2018-07-23T16:59:56.291Z,11.30
2018-07-23T17:02:24.934Z,12.77
2018-07-23T17:04:53.419Z,12.40
2018-07-23T17:07:21.946Z,12.80
2018-07-23T17:09:50.410Z,13.80
2018-07-23T17:12:19.562Z,13.93
2018-07-23T17:14:48.079Z,13.27
2018-07-23T17:17:16.579Z,12.83
2018-07-23T17:19:45.075Z,18.63
2018-07-23T17:22:13.570Z,13.97
2018-07-23T17:24:42.497Z,19.20
2018-07-23T17:27:11.082Z,13.80
2018-07-23T17:29:39.551Z,11.70
2018-07-23T17:32:08.034Z,12.47
2018-07-23T17:34:36.560Z,12.50
2018-07-23T17:37:05.097Z,11.97
2018-07-23T17:39:33.579Z,11.47
2018-07-23T17:42:02.139Z,11.20
2018-07-23T17:44:30.633Z,12.13
2018-07-23T17:46:59.142Z,11.47
2018-07-23T17:49:27.644Z,11.97
2018-07-23T17:51:56.239Z,12.03
2018-07-23T17:54:24.738Z,11.77
2018-07-23T17:56:53.266Z,13.00
2018-07-23T17:59:21.842Z,11.47
2018-07-23T18:01:50.397Z,12.23
2018-07-23T18:04:18.924Z,11.87
2018-07-23T18:06:47.451Z,11.47
2018-07-23T18:09:16.042Z,11.83
2018-07-23T18:11:44.506Z,13.33
2018-07-23T18:14:13.108Z,12.80
2018-07-23T18:16:41.677Z,11.17
2018-07-23T18:19:10.193Z,12.93
2018-07-23T18:21:38.752Z,12.73
2018-07-23T18:24:07.245Z,12.77
2018-07-23T18:26:35.727Z,12.10
2018-07-23T18:29:04.220Z,12.33
2018-07-23T18:31:32.790Z,12.60
2018-07-23T18:34:01.394Z,12.57
2018-07-23T18:36:29.924Z,12.67
2018-07-23T18:38:58.400Z,12.90
2018-07-23T18:41:26.937Z,12.57
2018-07-23T18:43:55.443Z,12.30
2018-07-23T18:46:24.643Z,13.47
2018-07-23T18:49:35.064Z,13.00
2018-07-23T18:52:03.652Z,12.87
2018-07-23T18:54:32.931Z,11.87
2018-07-23T18:57:02.649Z,13.03
2018-07-23T18:59:31.408Z,12.77
2018-07-23T19:02:00.935Z,11.80
2018-07-23T19:04:29.513Z,12.47
2018-07-23T19:06:58.076Z,12.47
2018-07-23T19:09:27.578Z,13.03
2018-07-23T19:11:57.046Z,13.13
2018-07-23T19:14:25.577Z,12.77
2018-07-23T19:16:55.205Z,12.10
2018-07-23T19:19:23.776Z,13.30
2018-07-23T19:21:52.355Z,12.77
2018-07-23T19:24:20.886Z,12.43
2018-07-23T19:26:49.408Z,13.57
2018-07-23T19:29:17.942Z,13.80
2018-07-23T19:31:46.435Z,12.80
2018-07-23T19:34:15.095Z,13.30
2018-07-23T19:36:43.671Z,14.43
2018-07-23T19:39:13.509Z,14.50
2018-07-23T19:41:42.057Z,13.13
2018-07-23T19:44:11.037Z,13.47
2018-07-23T19:46:39.952Z,12.37
2018-07-23T19:49:08.514Z,12.07
2018-07-23T19:51:37.187Z,13.00
2018-07-23T19:54:06.642Z,13.10
2018-07-23T19:56:35.161Z,12.37
2018-07-23T19:59:03.745Z,14.20
2018-07-23T20:01:32.412Z,13.10
2018-07-23T20:04:01.158Z,15.17
2018-07-23T20:06:29.994Z,14.27
2018-07-23T20:09:00.286Z,15.60
2018-07-23T20:11:29.411Z,13.00
2018-07-23T20:13:57.903Z,14.90
2018-07-23T20:16:26.380Z,12.90
2018-07-23T20:18:54.876Z,13.37
2018-07-23T20:21:23.373Z,12.80
2018-07-23T20:23:51.941Z,13.83
2018-07-23T20:26:20.418Z,12.47
2018-07-23T20:28:48.928Z,12.60
2018-07-23T20:31:17.639Z,13.70
2018-07-23T20:33:46.132Z,13.67
2018-07-23T20:36:14.611Z,14.93
2018-07-23T20:38:43.102Z,14.13
2018-07-23T20:41:11.577Z,14.53
2018-07-23T20:43:40.115Z,14.60
2018-07-23T20:46:08.625Z,16.50
2018-07-23T20:48:37.085Z,15.53
2018-07-23T20:51:05.575Z,16.57
2018-07-23T20:53:34.037Z,17.40
2018-07-23T20:56:02.497Z,15.30
2018-07-23T20:58:30.985Z,15.93
2018-07-23T21:00:59.500Z,16.20
2018-07-23T21:03:28.168Z,17.30
2018-07-23T21:05:56.666Z,14.73
2018-07-23T21:08:25.147Z,15.67
2018-07-23T21:10:53.903Z,18.13
2018-07-23T21:13:22.458Z,16.43
2018-07-23T21:15:50.985Z,17.93
2018-07-23T21:18:19.592Z,17.77
2018-07-23T21:20:48.136Z,18.20
2018-07-23T21:23:16.646Z,17.07
2018-07-23T21:25:45.172Z,16.83
2018-07-23T21:28:13.663Z,18.40
2018-07-23T21:30:42.191Z,17.73
2018-07-23T21:33:10.684Z,17.43
2018-07-23T21:35:39.240Z,17.20
2018-07-23T21:38:07.728Z,19.30
2018-07-23T21:40:36.244Z,18.87
2018-07-23T21:43:04.740Z,18.47
2018-07-23T21:45:33.302Z,19.17
2018-07-23T21:48:02.090Z,20.03
2018-07-23T21:50:30.674Z,18.80
2018-07-23T21:52:59.149Z,18.27
2018-07-23T21:55:27.690Z,20.10
2018-07-23T21:57:56.189Z,20.00
2018-07-23T22:00:24.692Z,19.63
2018-07-23T22:02:53.265Z,19.57
2018-07-23T22:05:21.761Z,18.70
2018-07-23T22:07:50.252Z,20.87
2018-07-23T22:10:18.724Z,18.70
2018-07-23T22:12:47.244Z,19.13
2018-07-23T22:15:15.850Z,20.43
2018-07-23T22:17:44.338Z,20.47
2018-07-23T22:20:12.524Z,20.10
2018-07-23T22:22:41.024Z,19.20
2018-07-23T22:25:09.539Z,19.60
2018-07-23T22:27:38.045Z,21.77
2018-07-23T22:30:07.137Z,20.50
2018-07-23T22:32:35.741Z,20.63
2018-07-23T22:35:04.453Z,20.20
2018-07-23T22:37:32.983Z,22.83
2018-07-23T22:40:01.491Z,22.10
2018-07-23T22:42:31.644Z,21.97
2018-07-23T22:45:00.154Z,22.87
2018-07-23T22:47:28.658Z,24.10
2018-07-23T22:49:57.274Z,24.07
2018-07-23T22:52:25.852Z,24.93
2018-07-23T22:54:54.324Z,24.23
2018-07-23T22:57:22.784Z,23.67
2018-07-23T22:59:51.304Z,24.50
2018-07-23T23:02:19.839Z,23.93
2018-07-23T23:04:48.438Z,25.83
2018-07-23T23:07:17.063Z,26.40
2018-07-23T23:09:45.786Z,24.13
2018-07-23T23:12:14.346Z,24.40
2018-07-23T23:14:42.505Z,24.57
2018-07-23T23:17:11.018Z,24.07
2018-07-23T23:19:39.492Z,24.73
2018-07-23T23:22:08.249Z,24.20
2018-07-23T23:24:36.755Z,25.27
2018-07-23T23:27:05.278Z,23.60
2018-07-23T23:29:33.759Z,24.70
2018-07-23T23:32:02.244Z,24.13
2018-07-23T23:34:30.710Z,24.27
2018-07-23T23:36:59.185Z,23.33
2018-07-23T23:39:27.644Z,24.60
2018-07-23T23:41:56.131Z,24.53
2018-07-23T23:44:24.583Z,23.93
2018-07-23T23:46:53.098Z,24.53
2018-07-23T23:49:21.266Z,26.90
2018-07-23T23:51:49.757Z,25.87
2018-07-23T23:54:18.206Z,23.50
2018-07-23T23:56:46.706Z,26.07
2018-07-23T23:59:16.531Z,31.23
